sensor_id;sensor_type;location;lat;lon;timestamp;temperature;humidity
22838;DHT22;11585;51.450;-0.240;2023-08-07T00:00:42;17.60;99.90
22838;DHT22;11585;51.450;-0.240;2023-08-07T00:03:08;17.60;99.90
22838;DHT22;11585;51.450;-0.240;2023-08-07T00:08:56;17.60;99.90
22838;DHT22;11585;51.450;-0.240;2023-08-07T00:11:21;17.60;99.90
22838;DHT22;11585;51.450;-0.240;2023-08-07T00:13:47;17.50;99.90
22838;DHT22;11585;51.450;-0.240;2023-08-07T00:22:57;17.50;99.90
22838;DHT22;11585;51.450;-0.240;2023-08-07T00:28:44;17.40;99.90
22838;DHT22;11585;51.450;-0.240;2023-08-07T00:31:10;17.40;99.90
22838;DHT22;11585;51.450;-0.240;2023-08-07T00:33:35;17.40;99.90
22838;DHT22;11585;51.450;-0.240;2023-08-07T00:39:24;17.40;99.90
22838;DHT22;11585;51.450;-0.240;2023-08-07T00:41:49;17.30;99.90
22838;DHT22;11585;51.450;-0.240;2023-08-07T00:44:15;17.40;99.90
22838;DHT22;11585;51.450;-0.240;2023-08-07T00:50:04;17.30;99.90
22838;DHT22;11585;51.450;-0.240;2023-08-07T00:55:52;17.20;99.90
22838;DHT22;11585;51.450;-0.240;2023-08-07T00:58:17;17.20;99.90
22838;DHT22;11585;51.450;-0.240;2023-08-07T01:00:43;17.20;99.90
22838;DHT22;11585;51.450;-0.240;2023-08-07T01:03:11;17.20;99.90
22838;DHT22;11585;51.450;-0.240;2023-08-07T01:08:59;17.20;99.90
22838;DHT22;11585;51.450;-0.240;2023-08-07T01:20:06;17.00;99.90
22838;DHT22;11585;51.450;-0.240;2023-08-07T01:22:32;17.00;99.90
22838;DHT22;11585;51.450;-0.240;2023-08-07T01:28:33;17.00;99.90
22838;DHT22;11585;51.450;-0.240;2023-08-07T01:31:05;16.90;99.90
22838;DHT22;11585;51.450;-0.240;2023-08-07T01:33:47;16.90;99.90
22838;DHT22;11585;51.450;-0.240;2023-08-07T01:39:39;16.90;99.90
22838;DHT22;11585;51.450;-0.240;2023-08-07T01:42:06;16.80;99.90
22838;DHT22;11585;51.450;-0.240;2023-08-07T01:44:32;16.80;99.90
22838;DHT22;11585;51.450;-0.240;2023-08-07T01:50:20;16.80;99.90
22838;DHT22;11585;51.450;-0.240;2023-08-07T01:52:46;16.80;99.90
22838;DHT22;11585;51.450;-0.240;2023-08-07T01:58:34;16.70;99.90
22838;DHT22;11585;51.450;-0.240;2023-08-07T02:00:59;16.70;99.90
22838;DHT22;11585;51.450;-0.240;2023-08-07T02:03:25;16.70;99.90
22838;DHT22;11585;51.450;-0.240;2023-08-07T02:09:13;16.70;99.90
22838;DHT22;11585;51.450;-0.240;2023-08-07T02:15:00;16.60;99.90
22838;DHT22;11585;51.450;-0.240;2023-08-07T02:17:28;16.60;99.90
22838;DHT22;11585;51.450;-0.240;2023-08-07T02:19:55;16.60;99.90
22838;DHT22;11585;51.450;-0.240;2023-08-07T02:22:21;16.60;99.90
22838;DHT22;11585;51.450;-0.240;2023-08-07T02:24:47;16.50;99.90
22838;DHT22;11585;51.450;-0.240;2023-08-07T02:30:35;16.50;99.90
22838;DHT22;11585;51.450;-0.240;2023-08-07T02:33:00;16.50;99.90
22838;DHT22;11585;51.450;-0.240;2023-08-07T02:38:48;16.50;99.90
22838;DHT22;11585;51.450;-0.240;2023-08-07T02:41:13;16.40;99.90
22838;DHT22;11585;51.450;-0.240;2023-08-07T02:43:39;16.40;99.90
22838;DHT22;11585;51.450;-0.240;2023-08-07T02:49:26;16.40;99.90
22838;DHT22;11585;51.450;-0.240;2023-08-07T02:51:52;16.30;99.90
22838;DHT22;11585;51.450;-0.240;2023-08-07T02:54:17;16.30;99.90
22838;DHT22;11585;51.450;-0.240;2023-08-07T03:00:05;16.30;99.90
22838;DHT22;11585;51.450;-0.240;2023-08-07T03:02:31;16.30;99.90
22838;DHT22;11585;51.450;-0.240;2023-08-07T03:04:57;16.30;99.90
22838;DHT22;11585;51.450;-0.240;2023-08-07T03:07:22;16.30;99.90
22838;DHT22;11585;51.450;-0.240;2023-08-07T03:09:48;16.20;99.90
22838;DHT22;11585;51.450;-0.240;2023-08-07T03:12:13;16.20;99.90
22838;DHT22;11585;51.450;-0.240;2023-08-07T03:14:39;16.20;99.90
22838;DHT22;11585;51.450;-0.240;2023-08-07T03:20:27;16.20;99.90
22838;DHT22;11585;51.450;-0.240;2023-08-07T03:26:14;16.10;99.90
22838;DHT22;11585;51.450;-0.240;2023-08-07T03:28:40;16.10;99.90
22838;DHT22;11585;51.450;-0.240;2023-08-07T03:31:06;16.10;99.90
22838;DHT22;11585;51.450;-0.240;2023-08-07T03:33:31;16.10;99.90
22838;DHT22;11585;51.450;-0.240;2023-08-07T03:39:19;16.10;99.90
22838;DHT22;11585;51.450;-0.240;2023-08-07T03:41:45;16.00;99.90
22838;DHT22;11585;51.450;-0.240;2023-08-07T03:44:10;16.00;99.90
22838;DHT22;11585;51.450;-0.240;2023-08-07T03:49:58;16.00;99.90
22838;DHT22;11585;51.450;-0.240;2023-08-07T03:52:24;16.00;99.90
22838;DHT22;11585;51.450;-0.240;2023-08-07T03:54:49;16.00;99.90
22838;DHT22;11585;51.450;-0.240;2023-08-07T04:00:37;16.00;99.90
22838;DHT22;11585;51.450;-0.240;2023-08-07T04:06:25;15.90;99.90
22838;DHT22;11585;51.450;-0.240;2023-08-07T04:08:52;15.90;99.90
22838;DHT22;11585;51.450;-0.240;2023-08-07T04:11:17;15.90;99.90
22838;DHT22;11585;51.450;-0.240;2023-08-07T04:13:43;15.80;99.90
22838;DHT22;11585;51.450;-0.240;2023-08-07T04:19:31;15.90;99.90
22838;DHT22;11585;51.450;-0.240;2023-08-07T04:21:56;15.80;99.90
22838;DHT22;11585;51.450;-0.240;2023-08-07T04:24:22;15.80;99.90
22838;DHT22;11585;51.450;-0.240;2023-08-07T04:30:10;15.80;99.90
22838;DHT22;11585;51.450;-0.240;2023-08-07T04:32:35;15.80;99.90
22838;DHT22;11585;51.450;-0.240;2023-08-07T04:35:01;15.80;99.90
22838;DHT22;11585;51.450;-0.240;2023-08-07T04:37:27;15.80;99.90
22838;DHT22;11585;51.450;-0.240;2023-08-07T04:39:52;15.80;99.90
22838;DHT22;11585;51.450;-0.240;2023-08-07T04:42:19;15.80;99.90
22838;DHT22;11585;51.450;-0.240;2023-08-07T04:44:46;15.80;99.90
22838;DHT22;11585;51.450;-0.240;2023-08-07T04:50:34;15.70;99.90
22838;DHT22;11585;51.450;-0.240;2023-08-07T04:56:21;15.70;99.90
22838;DHT22;11585;51.450;-0.240;2023-08-07T04:58:47;15.70;99.90
22838;DHT22;11585;51.450;-0.240;2023-08-07T05:01:13;15.70;99.90
22838;DHT22;11585;51.450;-0.240;2023-08-07T05:03:38;15.70;99.90
22838;DHT22;11585;51.450;-0.240;2023-08-07T05:09:26;15.70;99.90
22838;DHT22;11585;51.450;-0.240;2023-08-07T05:11:52;15.60;99.90
22838;DHT22;11585;51.450;-0.240;2023-08-07T05:14:17;15.60;99.90
22838;DHT22;11585;51.450;-0.240;2023-08-07T05:20:05;15.60;99.90
22838;DHT22;11585;51.450;-0.240;2023-08-07T05:22:31;15.60;99.90
22838;DHT22;11585;51.450;-0.240;2023-08-07T05:24:57;15.60;99.90
22838;DHT22;11585;51.450;-0.240;2023-08-07T05:27:22;15.60;99.90
22838;DHT22;11585;51.450;-0.240;2023-08-07T05:29:48;15.50;99.90
22838;DHT22;11585;51.450;-0.240;2023-08-07T05:32:14;15.60;99.90
22838;DHT22;11585;51.450;-0.240;2023-08-07T05:34:40;15.50;99.90
22838;DHT22;11585;51.450;-0.240;2023-08-07T05:40:28;15.50;99.90
22838;DHT22;11585;51.450;-0.240;2023-08-07T05:42:55;15.50;99.90
22838;DHT22;11585;51.450;-0.240;2023-08-07T05:48:43;15.50;99.90
22838;DHT22;11585;51.450;-0.240;2023-08-07T05:54:30;15.50;99.90
22838;DHT22;11585;51.450;-0.240;2023-08-07T06:00:25;15.50;99.90
22838;DHT22;11585;51.450;-0.240;2023-08-07T06:02:50;15.40;99.90
22838;DHT22;11585;51.450;-0.240;2023-08-07T06:08:38;15.40;99.90
22838;DHT22;11585;51.450;-0.240;2023-08-07T06:11:03;15.40;99.90
22838;DHT22;11585;51.450;-0.240;2023-08-07T06:13:30;15.40;99.90
22838;DHT22;11585;51.450;-0.240;2023-08-07T06:19:18;15.50;99.90
22838;DHT22;11585;51.450;-0.240;2023-08-07T06:21:45;15.40;99.90
22838;DHT22;11585;51.450;-0.240;2023-08-07T06:24:11;15.40;99.90
22838;DHT22;11585;51.450;-0.240;2023-08-07T06:29:59;15.50;99.90
22838;DHT22;11585;51.450;-0.240;2023-08-07T06:32:25;15.40;99.90
22838;DHT22;11585;51.450;-0.240;2023-08-07T06:34:52;15.40;99.90
22838;DHT22;11585;51.450;-0.240;2023-08-07T06:40:24;15.50;99.90
22838;DHT22;11585;51.450;-0.240;2023-08-07T06:42:50;15.40;99.90
22838;DHT22;11585;51.450;-0.240;2023-08-07T06:45:15;15.50;99.90
22838;DHT22;11585;51.450;-0.240;2023-08-07T06:47:41;15.50;99.90
22838;DHT22;11585;51.450;-0.240;2023-08-07T06:50:07;15.50;99.90
22838;DHT22;11585;51.450;-0.240;2023-08-07T06:52:32;15.50;99.90
22838;DHT22;11585;51.450;-0.240;2023-08-07T07:08:11;15.60;99.90
22838;DHT22;11585;51.450;-0.240;2023-08-07T07:10:37;15.60;99.90
22838;DHT22;11585;51.450;-0.240;2023-08-07T07:13:02;15.60;99.90
22838;DHT22;11585;51.450;-0.240;2023-08-07T07:15:52;15.60;99.90
22838;DHT22;11585;51.450;-0.240;2023-08-07T07:18:17;15.70;99.90
22838;DHT22;11585;51.450;-0.240;2023-08-07T07:20:43;15.70;99.90
22838;DHT22;11585;51.450;-0.240;2023-08-07T07:23:11;15.70;99.90
22838;DHT22;11585;51.450;-0.240;2023-08-07T07:29:19;15.70;99.90
22838;DHT22;11585;51.450;-0.240;2023-08-07T07:31:44;15.80;99.90
22838;DHT22;11585;51.450;-0.240;2023-08-07T07:34:10;15.80;99.90
22838;DHT22;11585;51.450;-0.240;2023-08-07T07:36:36;15.80;99.90
22838;DHT22;11585;51.450;-0.240;2023-08-07T07:39:01;15.80;99.90
22838;DHT22;11585;51.450;-0.240;2023-08-07T07:41:27;15.90;99.90
22838;DHT22;11585;51.450;-0.240;2023-08-07T07:43:53;15.90;99.90
22838;DHT22;11585;51.450;-0.240;2023-08-07T07:46:19;16.00;99.90
22838;DHT22;11585;51.450;-0.240;2023-08-07T07:48:44;16.00;99.90
22838;DHT22;11585;51.450;-0.240;2023-08-07T07:51:10;16.10;99.90
22838;DHT22;11585;51.450;-0.240;2023-08-07T07:53:36;16.10;99.90
22838;DHT22;11585;51.450;-0.240;2023-08-07T07:56:01;16.10;99.90
22838;DHT22;11585;51.450;-0.240;2023-08-07T07:58:27;16.20;99.90
22838;DHT22;11585;51.450;-0.240;2023-08-07T08:00:53;16.20;99.90
22838;DHT22;11585;51.450;-0.240;2023-08-07T08:03:20;16.20;99.90
22838;DHT22;11585;51.450;-0.240;2023-08-07T08:05:51;16.30;99.90
22838;DHT22;11585;51.450;-0.240;2023-08-07T08:08:17;16.30;99.90
22838;DHT22;11585;51.450;-0.240;2023-08-07T08:10:43;16.30;99.90
22838;DHT22;11585;51.450;-0.240;2023-08-07T08:13:10;16.40;99.90
22838;DHT22;11585;51.450;-0.240;2023-08-07T08:15:35;16.40;99.90
22838;DHT22;11585;51.450;-0.240;2023-08-07T08:18:01;16.40;99.90
22838;DHT22;11585;51.450;-0.240;2023-08-07T08:20:27;16.50;99.90
22838;DHT22;11585;51.450;-0.240;2023-08-07T08:22:52;16.50;99.90
22838;DHT22;11585;51.450;-0.240;2023-08-07T08:25:19;16.50;99.90
22838;DHT22;11585;51.450;-0.240;2023-08-07T08:27:45;16.60;99.90
22838;DHT22;11585;51.450;-0.240;2023-08-07T08:30:11;16.60;99.90
22838;DHT22;11585;51.450;-0.240;2023-08-07T08:32:38;16.60;99.90
22838;DHT22;11585;51.450;-0.240;2023-08-07T08:35:08;16.70;99.90
22838;DHT22;11585;51.450;-0.240;2023-08-07T08:37:34;16.70;99.90
22838;DHT22;11585;51.450;-0.240;2023-08-07T08:40:00;16.70;99.90
22838;DHT22;11585;51.450;-0.240;2023-08-07T08:42:26;16.70;99.90
22838;DHT22;11585;51.450;-0.240;2023-08-07T08:44:53;16.80;99.90
22838;DHT22;11585;51.450;-0.240;2023-08-07T08:47:21;16.80;99.90
22838;DHT22;11585;51.450;-0.240;2023-08-07T08:49:50;16.80;99.90
22838;DHT22;11585;51.450;-0.240;2023-08-07T08:52:16;16.90;99.90
22838;DHT22;11585;51.450;-0.240;2023-08-07T08:54:45;16.90;99.90
22838;DHT22;11585;51.450;-0.240;2023-08-07T08:57:12;17.00;99.90
22838;DHT22;11585;51.450;-0.240;2023-08-07T08:59:40;17.00;99.90
22838;DHT22;11585;51.450;-0.240;2023-08-07T09:02:07;17.00;99.90
22838;DHT22;11585;51.450;-0.240;2023-08-07T09:04:33;17.00;99.90
22838;DHT22;11585;51.450;-0.240;2023-08-07T09:07:00;17.10;99.90
22838;DHT22;11585;51.450;-0.240;2023-08-07T09:09:27;17.10;99.90
22838;DHT22;11585;51.450;-0.240;2023-08-07T09:11:55;17.10;99.90
22838;DHT22;11585;51.450;-0.240;2023-08-07T09:14:26;17.20;99.90
22838;DHT22;11585;51.450;-0.240;2023-08-07T09:16:53;17.20;99.90
22838;DHT22;11585;51.450;-0.240;2023-08-07T09:19:19;17.20;99.90
22838;DHT22;11585;51.450;-0.240;2023-08-07T09:21:44;17.20;99.90
22838;DHT22;11585;51.450;-0.240;2023-08-07T09:24:10;17.30;99.90
22838;DHT22;11585;51.450;-0.240;2023-08-07T09:26:42;17.30;99.90
22838;DHT22;11585;51.450;-0.240;2023-08-07T09:29:10;17.30;99.90
22838;DHT22;11585;51.450;-0.240;2023-08-07T09:31:37;17.40;99.90
22838;DHT22;11585;51.450;-0.240;2023-08-07T09:34:03;17.40;99.90
22838;DHT22;11585;51.450;-0.240;2023-08-07T09:36:34;17.40;99.90
22838;DHT22;11585;51.450;-0.240;2023-08-07T09:39:03;17.50;99.90
22838;DHT22;11585;51.450;-0.240;2023-08-07T09:41:32;17.50;99.90
22838;DHT22;11585;51.450;-0.240;2023-08-07T09:44:06;17.50;99.90
22838;DHT22;11585;51.450;-0.240;2023-08-07T09:46:44;17.60;99.90
22838;DHT22;11585;51.450;-0.240;2023-08-07T09:49:10;17.60;99.90
22838;DHT22;11585;51.450;-0.240;2023-08-07T09:51:43;17.60;99.90
22838;DHT22;11585;51.450;-0.240;2023-08-07T09:54:10;17.60;99.90
22838;DHT22;11585;51.450;-0.240;2023-08-07T09:56:36;17.70;99.90
22838;DHT22;11585;51.450;-0.240;2023-08-07T09:59:01;17.70;99.90
22838;DHT22;11585;51.450;-0.240;2023-08-07T10:01:27;17.70;99.90
22838;DHT22;11585;51.450;-0.240;2023-08-07T10:03:53;17.70;99.90
22838;DHT22;11585;51.450;-0.240;2023-08-07T10:06:39;17.80;99.90
22838;DHT22;11585;51.450;-0.240;2023-08-07T10:09:05;17.80;99.90
22838;DHT22;11585;51.450;-0.240;2023-08-07T10:11:32;17.80;99.90
22838;DHT22;11585;51.450;-0.240;2023-08-07T10:13:59;17.90;99.90
22838;DHT22;11585;51.450;-0.240;2023-08-07T10:16:27;17.90;99.90
22838;DHT22;11585;51.450;-0.240;2023-08-07T10:18:53;18.00;99.90
22838;DHT22;11585;51.450;-0.240;2023-08-07T10:21:19;18.00;99.90
22838;DHT22;11585;51.450;-0.240;2023-08-07T10:23:46;18.00;99.90
22838;DHT22;11585;51.450;-0.240;2023-08-07T10:26:14;18.00;99.90
22838;DHT22;11585;51.450;-0.240;2023-08-07T10:28:41;18.10;99.90
22838;DHT22;11585;51.450;-0.240;2023-08-07T10:31:08;18.10;99.90
22838;DHT22;11585;51.450;-0.240;2023-08-07T10:33:35;18.10;99.90
22838;DHT22;11585;51.450;-0.240;2023-08-07T10:36:08;18.10;99.90
22838;DHT22;11585;51.450;-0.240;2023-08-07T10:38:35;18.20;99.90
22838;DHT22;11585;51.450;-0.240;2023-08-07T10:41:08;18.20;99.90
22838;DHT22;11585;51.450;-0.240;2023-08-07T10:43:42;18.20;99.90
22838;DHT22;11585;51.450;-0.240;2023-08-07T10:46:14;18.20;99.90
22838;DHT22;11585;51.450;-0.240;2023-08-07T10:48:44;18.20;99.90
22838;DHT22;11585;51.450;-0.240;2023-08-07T10:51:17;18.20;99.90
22838;DHT22;11585;51.450;-0.240;2023-08-07T10:53:47;18.30;99.90
22838;DHT22;11585;51.450;-0.240;2023-08-07T10:56:33;18.30;99.90
22838;DHT22;11585;51.450;-0.240;2023-08-07T10:59:08;18.30;99.90
22838;DHT22;11585;51.450;-0.240;2023-08-07T11:01:40;18.30;99.90
22838;DHT22;11585;51.450;-0.240;2023-08-07T11:04:07;18.30;99.90
22838;DHT22;11585;51.450;-0.240;2023-08-07T11:06:36;18.40;99.90
22838;DHT22;11585;51.450;-0.240;2023-08-07T11:09:04;18.40;99.90
22838;DHT22;11585;51.450;-0.240;2023-08-07T11:14:13;18.50;99.90
22838;DHT22;11585;51.450;-0.240;2023-08-07T11:16:39;18.50;99.90
22838;DHT22;11585;51.450;-0.240;2023-08-07T11:19:06;18.50;99.90
22838;DHT22;11585;51.450;-0.240;2023-08-07T11:21:32;18.50;99.90
22838;DHT22;11585;51.450;-0.240;2023-08-07T11:23:58;18.50;99.90
22838;DHT22;11585;51.450;-0.240;2023-08-07T11:26:27;18.60;99.90
22838;DHT22;11585;51.450;-0.240;2023-08-07T11:28:54;18.60;99.90
22838;DHT22;11585;51.450;-0.240;2023-08-07T11:31:20;18.60;99.90
22838;DHT22;11585;51.450;-0.240;2023-08-07T11:33:46;18.70;99.90
22838;DHT22;11585;51.450;-0.240;2023-08-07T11:36:14;18.70;99.90
22838;DHT22;11585;51.450;-0.240;2023-08-07T11:38:41;18.70;99.90
22838;DHT22;11585;51.450;-0.240;2023-08-07T11:41:14;18.70;99.90
22838;DHT22;11585;51.450;-0.240;2023-08-07T11:43:40;18.80;99.90
22838;DHT22;11585;51.450;-0.240;2023-08-07T11:46:26;18.80;99.90
22838;DHT22;11585;51.450;-0.240;2023-08-07T11:48:52;18.80;99.90
22838;DHT22;11585;51.450;-0.240;2023-08-07T11:51:20;18.80;99.90
22838;DHT22;11585;51.450;-0.240;2023-08-07T11:53:46;18.90;99.90
22838;DHT22;11585;51.450;-0.240;2023-08-07T11:56:16;18.90;99.90
22838;DHT22;11585;51.450;-0.240;2023-08-07T11:58:48;18.90;99.90
22838;DHT22;11585;51.450;-0.240;2023-08-07T12:01:20;18.90;99.90
22838;DHT22;11585;51.450;-0.240;2023-08-07T12:06:35;19.00;99.90
22838;DHT22;11585;51.450;-0.240;2023-08-07T12:09:02;19.00;99.90
22838;DHT22;11585;51.450;-0.240;2023-08-07T12:11:29;19.00;99.90
22838;DHT22;11585;51.450;-0.240;2023-08-07T12:13:55;19.10;99.90
22838;DHT22;11585;51.450;-0.240;2023-08-07T12:19:11;19.10;99.90
22838;DHT22;11585;51.450;-0.240;2023-08-07T12:21:36;19.10;99.90
22838;DHT22;11585;51.450;-0.240;2023-08-07T12:24:06;19.10;99.90
22838;DHT22;11585;51.450;-0.240;2023-08-07T12:26:53;19.20;99.90
22838;DHT22;11585;51.450;-0.240;2023-08-07T12:29:18;19.20;99.90
22838;DHT22;11585;51.450;-0.240;2023-08-07T12:31:44;19.20;99.90
22838;DHT22;11585;51.450;-0.240;2023-08-07T12:34:09;19.20;99.90
22838;DHT22;11585;51.450;-0.240;2023-08-07T12:36:36;19.30;99.90
22838;DHT22;11585;51.450;-0.240;2023-08-07T12:39:01;19.30;99.90
22838;DHT22;11585;51.450;-0.240;2023-08-07T12:41:27;19.30;99.90
22838;DHT22;11585;51.450;-0.240;2023-08-07T12:43:53;19.30;99.90
22838;DHT22;11585;51.450;-0.240;2023-08-07T12:49:40;19.40;99.90
22838;DHT22;11585;51.450;-0.240;2023-08-07T12:52:06;19.40;99.90
22838;DHT22;11585;51.450;-0.240;2023-08-07T12:54:32;19.50;99.90
22838;DHT22;11585;51.450;-0.240;2023-08-07T12:57:18;19.50;99.90
22838;DHT22;11585;51.450;-0.240;2023-08-07T12:59:43;19.50;99.90
22838;DHT22;11585;51.450;-0.240;2023-08-07T13:02:09;19.50;99.90
22838;DHT22;11585;51.450;-0.240;2023-08-07T13:04:34;19.50;99.90
22838;DHT22;11585;51.450;-0.240;2023-08-07T13:07:02;19.60;99.90
22838;DHT22;11585;51.450;-0.240;2023-08-07T13:09:27;19.60;99.90
22838;DHT22;11585;51.450;-0.240;2023-08-07T13:11:53;19.60;99.90
22838;DHT22;11585;51.450;-0.240;2023-08-07T13:14:18;19.60;99.90
22838;DHT22;11585;51.450;-0.240;2023-08-07T13:16:45;19.70;99.90
22838;DHT22;11585;51.450;-0.240;2023-08-07T13:19:11;19.70;99.90
22838;DHT22;11585;51.450;-0.240;2023-08-07T13:21:36;19.70;99.90
22838;DHT22;11585;51.450;-0.240;2023-08-07T13:24:02;19.80;99.90
22838;DHT22;11585;51.450;-0.240;2023-08-07T13:26:28;19.80;99.90
22838;DHT22;11585;51.450;-0.240;2023-08-07T13:28:54;19.80;99.90
22838;DHT22;11585;51.450;-0.240;2023-08-07T13:31:19;19.80;99.90
22838;DHT22;11585;51.450;-0.240;2023-08-07T13:33:45;19.90;99.90
22838;DHT22;11585;51.450;-0.240;2023-08-07T13:36:12;19.90;99.90
22838;DHT22;11585;51.450;-0.240;2023-08-07T13:38:37;20.00;99.90
22838;DHT22;11585;51.450;-0.240;2023-08-07T13:41:03;20.00;99.90
22838;DHT22;11585;51.450;-0.240;2023-08-07T13:43:29;20.00;99.90
22838;DHT22;11585;51.450;-0.240;2023-08-07T13:45:55;20.00;99.90
22838;DHT22;11585;51.450;-0.240;2023-08-07T13:48:20;20.10;99.90
22838;DHT22;11585;51.450;-0.240;2023-08-07T13:50:47;20.10;99.90
22838;DHT22;11585;51.450;-0.240;2023-08-07T13:53:13;20.10;99.90
22838;DHT22;11585;51.450;-0.240;2023-08-07T13:55:57;20.10;99.90
22838;DHT22;11585;51.450;-0.240;2023-08-07T13:58:22;20.20;99.90
22838;DHT22;11585;51.450;-0.240;2023-08-07T14:00:48;20.20;99.90
22838;DHT22;11585;51.450;-0.240;2023-08-07T14:03:13;20.20;99.90
22838;DHT22;11585;51.450;-0.240;2023-08-07T14:08:45;20.30;99.90
22838;DHT22;11585;51.450;-0.240;2023-08-07T14:11:11;20.30;99.90
22838;DHT22;11585;51.450;-0.240;2023-08-07T14:13:39;20.30;99.90
22838;DHT22;11585;51.450;-0.240;2023-08-07T14:16:06;20.30;99.90
22838;DHT22;11585;51.450;-0.240;2023-08-07T14:18:32;20.30;99.90
22838;DHT22;11585;51.450;-0.240;2023-08-07T14:20:57;20.30;99.90
22838;DHT22;11585;51.450;-0.240;2023-08-07T14:23:23;20.40;99.90
22838;DHT22;11585;51.450;-0.240;2023-08-07T14:25:50;20.40;99.90
22838;DHT22;11585;51.450;-0.240;2023-08-07T14:28:16;20.40;99.90
22838;DHT22;11585;51.450;-0.240;2023-08-07T14:30:42;20.40;99.90
22838;DHT22;11585;51.450;-0.240;2023-08-07T14:33:07;20.40;99.90
22838;DHT22;11585;51.450;-0.240;2023-08-07T14:35:33;20.50;99.90
22838;DHT22;11585;51.450;-0.240;2023-08-07T14:37:59;20.50;99.90
22838;DHT22;11585;51.450;-0.240;2023-08-07T14:40:24;20.50;99.90
22838;DHT22;11585;51.450;-0.240;2023-08-07T14:42:50;20.50;99.90
22838;DHT22;11585;51.450;-0.240;2023-08-07T14:45:15;20.50;99.90
22838;DHT22;11585;51.450;-0.240;2023-08-07T14:47:43;20.60;99.90
22838;DHT22;11585;51.450;-0.240;2023-08-07T14:50:09;20.60;99.90
22838;DHT22;11585;51.450;-0.240;2023-08-07T14:52:35;20.60;99.90
22838;DHT22;11585;51.450;-0.240;2023-08-07T14:55:02;20.60;99.90
22838;DHT22;11585;51.450;-0.240;2023-08-07T14:57:28;20.70;99.90
22838;DHT22;11585;51.450;-0.240;2023-08-07T14:59:53;20.70;99.90
22838;DHT22;11585;51.450;-0.240;2023-08-07T15:02:19;20.70;99.90
22838;DHT22;11585;51.450;-0.240;2023-08-07T15:04:45;20.70;99.90
22838;DHT22;11585;51.450;-0.240;2023-08-07T15:07:11;20.70;99.90
22838;DHT22;11585;51.450;-0.240;2023-08-07T15:09:37;20.80;99.90
22838;DHT22;11585;51.450;-0.240;2023-08-07T15:12:03;20.70;99.90
22838;DHT22;11585;51.450;-0.240;2023-08-07T15:14:29;20.80;99.90
22838;DHT22;11585;51.450;-0.240;2023-08-07T15:16:55;20.70;99.90
22838;DHT22;11585;51.450;-0.240;2023-08-07T15:19:21;20.80;99.90
22838;DHT22;11585;51.450;-0.240;2023-08-07T15:21:46;20.80;99.90
22838;DHT22;11585;51.450;-0.240;2023-08-07T15:24:12;20.80;99.90
22838;DHT22;11585;51.450;-0.240;2023-08-07T15:26:38;20.80;99.90
22838;DHT22;11585;51.450;-0.240;2023-08-07T15:29:03;20.80;99.90
22838;DHT22;11585;51.450;-0.240;2023-08-07T15:31:29;20.80;99.90
22838;DHT22;11585;51.450;-0.240;2023-08-07T15:33:55;20.80;99.90
22838;DHT22;11585;51.450;-0.240;2023-08-07T15:36:24;20.80;99.90
22838;DHT22;11585;51.450;-0.240;2023-08-07T15:38:50;20.80;99.90
22838;DHT22;11585;51.450;-0.240;2023-08-07T15:41:16;20.80;99.90
22838;DHT22;11585;51.450;-0.240;2023-08-07T15:43:42;20.80;99.90
22838;DHT22;11585;51.450;-0.240;2023-08-07T15:46:08;20.80;99.90
22838;DHT22;11585;51.450;-0.240;2023-08-07T15:48:33;20.80;99.90
22838;DHT22;11585;51.450;-0.240;2023-08-07T15:50:59;20.80;99.90
22838;DHT22;11585;51.450;-0.240;2023-08-07T15:53:25;20.80;99.90
22838;DHT22;11585;51.450;-0.240;2023-08-07T15:55:52;20.90;99.90
22838;DHT22;11585;51.450;-0.240;2023-08-07T15:58:17;20.90;99.90
22838;DHT22;11585;51.450;-0.240;2023-08-07T16:00:43;20.90;99.90
22838;DHT22;11585;51.450;-0.240;2023-08-07T16:03:09;20.90;99.90
22838;DHT22;11585;51.450;-0.240;2023-08-07T16:05:37;20.90;99.90
22838;DHT22;11585;51.450;-0.240;2023-08-07T16:08:03;20.90;99.90
22838;DHT22;11585;51.450;-0.240;2023-08-07T16:10:31;20.90;99.90
22838;DHT22;11585;51.450;-0.240;2023-08-07T16:12:58;20.90;99.90
22838;DHT22;11585;51.450;-0.240;2023-08-07T16:15:24;20.90;99.90
22838;DHT22;11585;51.450;-0.240;2023-08-07T16:17:50;20.90;99.90
22838;DHT22;11585;51.450;-0.240;2023-08-07T16:20:16;20.90;99.90
22838;DHT22;11585;51.450;-0.240;2023-08-07T16:22:42;20.90;99.90
22838;DHT22;11585;51.450;-0.240;2023-08-07T16:25:10;20.90;99.90
22838;DHT22;11585;51.450;-0.240;2023-08-07T16:27:40;21.00;99.90
22838;DHT22;11585;51.450;-0.240;2023-08-07T16:30:06;21.00;99.90
22838;DHT22;11585;51.450;-0.240;2023-08-07T16:32:33;20.90;99.90
22838;DHT22;11585;51.450;-0.240;2023-08-07T16:35:00;21.00;99.90
22838;DHT22;11585;51.450;-0.240;2023-08-07T16:37:26;21.00;99.90
22838;DHT22;11585;51.450;-0.240;2023-08-07T16:39:52;21.00;99.90
22838;DHT22;11585;51.450;-0.240;2023-08-07T16:42:18;21.00;99.90
22838;DHT22;11585;51.450;-0.240;2023-08-07T16:44:44;21.00;99.90
22838;DHT22;11585;51.450;-0.240;2023-08-07T16:50:50;21.00;99.90
22838;DHT22;11585;51.450;-0.240;2023-08-07T16:53:17;21.00;99.90
22838;DHT22;11585;51.450;-0.240;2023-08-07T16:56:02;20.90;99.90
22838;DHT22;11585;51.450;-0.240;2023-08-07T16:58:27;21.00;99.90
22838;DHT22;11585;51.450;-0.240;2023-08-07T17:00:53;20.90;99.90
22838;DHT22;11585;51.450;-0.240;2023-08-07T17:03:18;20.90;99.90
22838;DHT22;11585;51.450;-0.240;2023-08-07T17:05:45;20.90;99.90
22838;DHT22;11585;51.450;-0.240;2023-08-07T17:08:11;20.90;99.90
22838;DHT22;11585;51.450;-0.240;2023-08-07T17:10:36;20.90;99.90
22838;DHT22;11585;51.450;-0.240;2023-08-07T17:13:02;20.90;99.90
22838;DHT22;11585;51.450;-0.240;2023-08-07T17:15:29;20.90;99.90
22838;DHT22;11585;51.450;-0.240;2023-08-07T17:17:54;20.90;99.90
22838;DHT22;11585;51.450;-0.240;2023-08-07T17:20:20;20.90;99.90
22838;DHT22;11585;51.450;-0.240;2023-08-07T17:22:46;20.90;99.90
22838;DHT22;11585;51.450;-0.240;2023-08-07T17:25:31;20.90;99.90
22838;DHT22;11585;51.450;-0.240;2023-08-07T17:27:57;20.90;99.90
22838;DHT22;11585;51.450;-0.240;2023-08-07T17:30:23;20.90;99.90
22838;DHT22;11585;51.450;-0.240;2023-08-07T17:32:49;20.90;99.90
22838;DHT22;11585;51.450;-0.240;2023-08-07T17:35:34;20.90;99.90
22838;DHT22;11585;51.450;-0.240;2023-08-07T17:38:00;21.00;99.90
22838;DHT22;11585;51.450;-0.240;2023-08-07T17:40:25;20.90;99.90
22838;DHT22;11585;51.450;-0.240;2023-08-07T17:42:51;20.90;99.90
22838;DHT22;11585;51.450;-0.240;2023-08-07T17:45:36;21.00;99.90
22838;DHT22;11585;51.450;-0.240;2023-08-07T17:48:01;21.00;99.90
22838;DHT22;11585;51.450;-0.240;2023-08-07T17:50:27;21.00;99.90
22838;DHT22;11585;51.450;-0.240;2023-08-07T17:52:53;21.00;99.90
22838;DHT22;11585;51.450;-0.240;2023-08-07T17:58:24;21.00;99.90
22838;DHT22;11585;51.450;-0.240;2023-08-07T18:00:50;21.00;99.90
22838;DHT22;11585;51.450;-0.240;2023-08-07T18:03:15;21.00;99.90
22838;DHT22;11585;51.450;-0.240;2023-08-07T18:09:03;21.00;99.90
22838;DHT22;11585;51.450;-0.240;2023-08-07T18:11:28;21.00;99.90